createdAt,value
2018-08-24T00:00:09.298Z,67.70
2018-08-24T00:02:38.242Z,67.80
2018-08-24T00:05:06.750Z,68.10
2018-08-24T00:07:35.224Z,68.20
2018-08-24T00:10:03.624Z,68.70
2018-08-24T00:12:31.968Z,68.90
2018-08-24T00:15:00.390Z,69.00
2018-08-24T00:17:29.462Z,68.70
2018-08-24T00:19:57.820Z,68.80
2018-08-24T00:22:26.206Z,69.10
2018-08-24T00:24:54.584Z,68.90
2018-08-24T00:27:22.938Z,69.20
2018-08-24T00:29:51.871Z,69.60
2018-08-24T00:32:20.319Z,69.50
2018-08-24T00:34:48.774Z,69.60
2018-08-24T00:37:17.121Z,69.60
2018-08-24T00:39:45.592Z,69.50
2018-08-24T00:42:14.425Z,69.50
2018-08-24T00:44:43.007Z,69.50
2018-08-24T00:47:11.768Z,69.50
2018-08-24T00:49:41.076Z,69.50
2018-08-24T00:52:09.704Z,69.50
2018-08-24T00:54:38.074Z,69.50
2018-08-24T00:57:06.596Z,69.50
2018-08-24T00:59:34.972Z,69.50
2018-08-24T01:02:03.956Z,69.50
2018-08-24T01:04:33.483Z,69.40
2018-08-24T01:07:06.886Z,69.40
2018-08-24T01:09:35.796Z,69.10
2018-08-24T01:12:10.061Z,69.00
2018-08-24T01:14:39.538Z,68.70
2018-08-24T01:17:13.220Z,68.50
2018-08-24T01:19:42.148Z,68.90
2018-08-24T01:22:10.630Z,68.90
2018-08-24T01:24:38.978Z,69.30
2018-08-24T01:27:08.060Z,69.30
2018-08-24T01:29:37.587Z,69.30
2018-08-24T01:32:06.506Z,69.20
2018-08-24T01:34:35.811Z,69.00
2018-08-24T01:37:04.514Z,68.90
2018-08-24T01:39:33.254Z,68.90
2018-08-24T01:42:02.466Z,68.80
2018-08-24T01:44:31.015Z,68.70
2018-08-24T01:46:59.370Z,68.70
2018-08-24T01:49:27.772Z,68.60
2018-08-24T01:51:56.138Z,68.90
2018-08-24T01:54:24.569Z,69.20
2018-08-24T01:56:52.957Z,68.90
2018-08-24T01:59:21.295Z,68.20
2018-08-24T02:01:49.631Z,68.20
2018-08-24T02:04:18.047Z,68.10
2018-08-24T02:06:46.413Z,68.10
2018-08-24T02:09:14.788Z,68.40
2018-08-24T02:11:43.220Z,69.10
2018-08-24T02:14:15.840Z,69.10
2018-08-24T02:16:44.513Z,68.70
2018-08-24T02:19:16.227Z,68.40
2018-08-24T02:21:49.771Z,67.90
2018-08-24T02:24:18.250Z,67.90
2018-08-24T02:26:47.095Z,67.90
2018-08-24T02:29:15.415Z,67.90
2018-08-24T02:31:50.574Z,67.80
2018-08-24T02:34:19.065Z,67.00
2018-08-24T02:36:47.537Z,67.00
2018-08-24T02:39:18.109Z,67.20
2018-08-24T02:41:46.573Z,67.30
2018-08-24T02:44:15.687Z,66.90
2018-08-24T02:46:44.665Z,67.00
2018-08-24T02:49:13.291Z,66.70
2018-08-24T02:51:41.636Z,66.90
2018-08-24T02:54:10.001Z,66.70
2018-08-24T02:56:38.394Z,67.30
2018-08-24T02:59:06.780Z,68.60
2018-08-24T03:01:35.193Z,68.50
2018-08-24T03:04:03.602Z,68.50
2018-08-24T03:06:32.026Z,68.50
2018-08-24T03:09:00.418Z,68.50
2018-08-24T03:11:28.859Z,68.50
2018-08-24T03:13:57.212Z,68.50
2018-08-24T03:16:26.382Z,68.50
2018-08-24T03:18:54.617Z,68.50
2018-08-24T03:21:22.991Z,68.50
2018-08-24T03:23:51.386Z,68.50
2018-08-24T03:26:19.789Z,68.30
2018-08-24T03:28:48.205Z,67.80
2018-08-24T03:31:16.520Z,67.60
2018-08-24T03:33:44.893Z,67.10
2018-08-24T03:36:13.273Z,67.00
2018-08-24T03:38:41.632Z,67.10
2018-08-24T03:41:10.151Z,66.70
2018-08-24T03:43:39.225Z,66.60
2018-08-24T03:46:07.655Z,66.80
2018-08-24T03:48:36.008Z,67.20
2018-08-24T03:51:04.479Z,67.20
2018-08-24T03:53:32.886Z,67.80
2018-08-24T03:56:01.247Z,68.20
2018-08-24T03:58:29.588Z,68.20
2018-08-24T04:00:57.956Z,68.20
2018-08-24T04:03:26.672Z,68.10
2018-08-24T04:05:55.109Z,68.80
2018-08-24T04:08:23.461Z,68.20
2018-08-24T04:10:51.949Z,67.80
2018-08-24T04:13:20.366Z,67.40
2018-08-24T04:15:48.713Z,67.20
2018-08-24T04:18:17.997Z,66.90
2018-08-24T04:20:46.410Z,66.80
2018-08-24T04:23:14.788Z,66.90
2018-08-24T04:25:43.195Z,67.40
2018-08-24T04:28:11.482Z,67.70
2018-08-24T04:30:39.854Z,67.90
2018-08-24T04:33:08.716Z,68.10
2018-08-24T04:35:37.128Z,67.50
2018-08-24T04:38:05.736Z,68.00
2018-08-24T04:40:34.115Z,68.00
2018-08-24T04:43:02.514Z,68.00
2018-08-24T04:45:31.265Z,67.90
2018-08-24T04:47:59.580Z,67.90
2018-08-24T04:50:28.022Z,67.90
2018-08-24T04:52:56.444Z,67.90
2018-08-24T04:55:25.386Z,67.90
2018-08-24T04:57:53.712Z,68.00
2018-08-24T05:00:22.092Z,67.90
2018-08-24T05:02:50.472Z,67.90
2018-08-24T05:05:18.850Z,67.90
2018-08-24T05:07:47.225Z,67.90
2018-08-24T05:10:15.568Z,68.00
2018-08-24T05:12:44.373Z,67.90
2018-08-24T05:15:12.700Z,68.00
2018-08-24T05:17:41.052Z,68.00
2018-08-24T05:20:09.386Z,67.90
2018-08-24T05:22:37.711Z,67.90
2018-08-24T05:25:06.564Z,68.00
2018-08-24T05:27:38.617Z,68.00
2018-08-24T05:30:07.192Z,68.00
2018-08-24T05:32:35.536Z,68.00
2018-08-24T05:35:03.964Z,68.00
2018-08-24T05:37:32.332Z,68.10
2018-08-24T05:40:00.673Z,68.20
2018-08-24T05:42:29.139Z,68.20
2018-08-24T05:44:57.538Z,67.60
2018-08-24T05:47:25.915Z,66.90
2018-08-24T05:49:54.288Z,67.50
2018-08-24T05:52:22.626Z,67.10
2018-08-24T05:54:50.996Z,67.00
2018-08-24T05:57:19.361Z,66.60
2018-08-24T05:59:47.880Z,66.30
2018-08-24T06:02:16.315Z,65.70
2018-08-24T06:04:44.653Z,65.90
2018-08-24T06:07:13.004Z,66.00
2018-08-24T06:09:42.026Z,64.00
2018-08-24T06:12:10.411Z,64.50
2018-08-24T06:14:38.822Z,65.80
2018-08-24T06:17:12.589Z,64.80
2018-08-24T06:19:40.962Z,64.80
2018-08-24T06:22:09.309Z,64.40
2018-08-24T06:24:37.770Z,64.50
2018-08-24T06:27:06.110Z,62.20
2018-08-24T06:29:34.930Z,62.90
2018-08-24T06:32:03.720Z,63.20
2018-08-24T06:34:32.106Z,62.80
2018-08-24T06:37:01.054Z,62.20
2018-08-24T06:39:29.416Z,61.70
2018-08-24T06:41:57.810Z,61.10
2018-08-24T06:44:26.108Z,61.10
2018-08-24T06:46:54.418Z,62.20
2018-08-24T06:49:22.790Z,63.30
2018-08-24T06:51:51.122Z,63.00
2018-08-24T06:54:19.500Z,61.70
2018-08-24T06:56:48.599Z,61.90
2018-08-24T06:59:17.023Z,61.10
2018-08-24T07:01:45.403Z,61.90
2018-08-24T07:04:13.790Z,62.20
2018-08-24T07:06:42.381Z,61.90
2018-08-24T07:09:11.012Z,65.00
2018-08-24T07:11:39.405Z,63.80
2018-08-24T07:14:07.767Z,62.80
2018-08-24T07:16:36.110Z,62.40
2018-08-24T07:19:04.512Z,62.90
2018-08-24T07:21:32.904Z,63.70
2018-08-24T07:24:01.288Z,62.50
2018-08-24T07:26:29.659Z,62.70
2018-08-24T07:28:58.022Z,61.50
2018-08-24T07:31:26.370Z,64.60
2018-08-24T07:33:54.811Z,62.30
2018-08-24T07:36:23.194Z,64.00
2018-08-24T07:38:51.660Z,64.00
2018-08-24T07:41:20.096Z,64.30
2018-08-24T07:43:48.437Z,63.40
2018-08-24T07:46:16.743Z,62.60
2018-08-24T07:48:45.131Z,63.60
2018-08-24T07:51:13.529Z,63.90
2018-08-24T07:53:41.921Z,63.70
2018-08-24T07:56:10.259Z,63.00
2018-08-24T07:58:38.633Z,63.70
2018-08-24T08:01:07.050Z,63.90
2018-08-24T08:03:35.442Z,63.80
2018-08-24T08:06:03.795Z,63.50
2018-08-24T08:08:32.173Z,63.90
2018-08-24T08:11:00.536Z,62.60
2018-08-24T08:13:28.866Z,63.90
2018-08-24T08:15:57.214Z,63.40
2018-08-24T08:18:25.655Z,63.60
2018-08-24T08:20:54.016Z,63.50
2018-08-24T08:23:22.910Z,63.30
2018-08-24T08:25:51.246Z,63.20
2018-08-24T08:28:19.588Z,63.70
2018-08-24T08:30:48.629Z,64.00
2018-08-24T08:33:16.988Z,64.50
2018-08-24T08:35:45.328Z,63.00
2018-08-24T08:38:14.170Z,63.30
2018-08-24T08:40:42.582Z,62.00
2018-08-24T08:43:10.954Z,63.40
2018-08-24T08:45:39.306Z,63.00
2018-08-24T08:48:11.116Z,63.40
2018-08-24T08:50:40.534Z,63.90
2018-08-24T08:53:08.868Z,62.10
2018-08-24T08:55:37.290Z,61.80
2018-08-24T08:58:05.668Z,63.10
2018-08-24T09:00:34.126Z,60.60
2018-08-24T09:03:02.522Z,61.70
2018-08-24T09:05:30.943Z,61.50
2018-08-24T09:07:59.286Z,64.20
2018-08-24T09:10:27.640Z,64.30
2018-08-24T09:12:56.041Z,64.10
2018-08-24T09:15:24.368Z,62.70
2018-08-24T09:17:58.030Z,63.40
2018-08-24T09:20:31.607Z,64.00
2018-08-24T09:23:05.430Z,61.90
2018-08-24T09:25:39.083Z,61.90
2018-08-24T09:28:12.772Z,61.90
2018-08-24T09:30:44.654Z,61.20
2018-08-24T09:33:13.000Z,62.60
2018-08-24T09:35:41.339Z,59.50
2018-08-24T09:38:09.697Z,63.00
2018-08-24T09:40:43.341Z,64.40
2018-08-24T09:43:17.043Z,63.80
2018-08-24T09:45:45.393Z,62.30
2018-08-24T09:48:18.961Z,64.10
2018-08-24T09:50:52.572Z,62.80
2018-08-24T09:53:26.372Z,62.30
2018-08-24T09:55:55.404Z,63.60
2018-08-24T09:58:23.756Z,63.70
2018-08-24T10:00:57.422Z,61.70
2018-08-24T10:03:31.116Z,61.40
2018-08-24T10:06:04.812Z,61.00
2018-08-24T10:08:38.533Z,61.20
2018-08-24T10:11:06.898Z,58.90
2018-08-24T10:13:35.284Z,60.20
2018-08-24T10:16:03.701Z,61.30
2018-08-24T10:18:32.126Z,62.00
2018-08-24T10:21:00.627Z,59.00
2018-08-24T10:23:28.995Z,59.40
2018-08-24T10:25:57.350Z,60.00
2018-08-24T10:28:25.861Z,56.60
2018-08-24T10:30:54.304Z,59.00
2018-08-24T10:33:22.677Z,59.00
2018-08-24T10:35:51.059Z,56.20
2018-08-24T10:38:19.473Z,56.20
2018-08-24T10:40:48.054Z,55.80
2018-08-24T10:43:16.637Z,57.60
2018-08-24T10:45:45.059Z,53.80
2018-08-24T10:48:13.485Z,53.40
2018-08-24T10:50:42.021Z,50.80
2018-08-24T10:53:10.409Z,51.90
2018-08-24T10:55:38.793Z,53.10
2018-08-24T10:58:07.205Z,52.90
2018-08-24T11:00:35.549Z,51.90
2018-08-24T11:03:03.915Z,50.10
2018-08-24T11:05:32.407Z,50.10
2018-08-24T11:08:00.768Z,51.20
2018-08-24T11:10:29.123Z,50.00
2018-08-24T11:12:57.547Z,48.00
2018-08-24T11:15:25.901Z,48.10
2018-08-24T11:18:06.857Z,47.80
2018-08-24T11:20:36.153Z,47.90
2018-08-24T11:23:04.680Z,49.00
2018-08-24T11:25:32.968Z,47.80
2018-08-24T11:28:01.363Z,47.40
2018-08-24T11:30:29.849Z,48.40
2018-08-24T11:32:58.759Z,46.60
2018-08-24T11:35:28.126Z,45.50
2018-08-24T11:37:56.403Z,45.90
2018-08-24T11:40:24.765Z,46.00
2018-08-24T11:42:53.144Z,45.80
2018-08-24T11:45:21.605Z,42.40
2018-08-24T11:47:50.062Z,42.20
2018-08-24T11:50:18.441Z,43.30
2018-08-24T11:52:46.872Z,42.90
2018-08-24T11:55:15.228Z,42.70
2018-08-24T11:57:44.252Z,41.50
2018-08-24T12:00:12.667Z,42.10
2018-08-24T12:02:41.039Z,42.10
2018-08-24T12:05:09.410Z,42.30
2018-08-24T12:07:37.814Z,41.70
2018-08-24T12:10:06.273Z,42.50
2018-08-24T12:12:34.711Z,41.40
2018-08-24T12:15:03.077Z,40.40
2018-08-24T12:17:33.933Z,40.00
2018-08-24T12:20:02.343Z,39.50
2018-08-24T12:22:30.761Z,40.60
2018-08-24T12:24:59.183Z,41.20
2018-08-24T12:27:27.546Z,40.20
2018-08-24T12:29:56.027Z,39.70
2018-08-24T12:32:24.500Z,38.30
2018-08-24T12:34:52.974Z,38.10
2018-08-24T12:37:21.286Z,38.80
2018-08-24T12:39:49.687Z,37.00
2018-08-24T12:42:18.078Z,40.30
2018-08-24T12:44:46.613Z,37.90
2018-08-24T12:47:15.001Z,37.20
2018-08-24T12:49:43.370Z,38.50
2018-08-24T12:52:11.917Z,37.10
2018-08-24T12:54:40.305Z,37.50
2018-08-24T12:57:08.724Z,37.60
2018-08-24T12:59:37.116Z,37.60
2018-08-24T13:02:05.629Z,37.00
2018-08-24T13:04:34.098Z,36.80
2018-08-24T13:07:02.468Z,37.30
2018-08-24T13:09:30.841Z,37.80
2018-08-24T13:11:59.697Z,39.30
2018-08-24T13:14:28.115Z,38.40
2018-08-24T13:16:56.494Z,38.80
2018-08-24T13:19:24.945Z,39.50
2018-08-24T13:21:53.351Z,37.70
2018-08-24T13:24:21.740Z,37.80
2018-08-24T13:26:50.105Z,37.20
2018-08-24T13:29:18.530Z,36.30
2018-08-24T13:31:46.900Z,37.00
2018-08-24T13:34:15.805Z,38.30
2018-08-24T13:36:44.864Z,37.80
2018-08-24T13:39:13.220Z,37.80
2018-08-24T13:41:41.745Z,38.50
2018-08-24T13:44:10.155Z,38.10
2018-08-24T13:46:38.516Z,38.30
2018-08-24T13:49:06.914Z,38.80
2018-08-24T13:51:35.330Z,38.30
2018-08-24T13:54:03.717Z,38.30
2018-08-24T13:56:32.147Z,38.90
2018-08-24T13:59:00.504Z,39.40
2018-08-24T14:01:28.903Z,39.10
2018-08-24T14:03:57.293Z,37.30
2018-08-24T14:06:25.753Z,36.80
2018-08-24T14:08:54.121Z,37.00
2018-08-24T14:11:22.466Z,37.60
2018-08-24T14:13:50.825Z,37.30
2018-08-24T14:16:19.179Z,36.70
2018-08-24T14:18:47.591Z,36.90
2018-08-24T14:21:15.974Z,34.70
2018-08-24T14:23:44.351Z,34.30
2018-08-24T14:26:13.336Z,34.60
2018-08-24T14:28:41.748Z,34.50
2018-08-24T14:31:10.226Z,33.60
2018-08-24T14:33:38.610Z,32.20
2018-08-24T14:36:07.763Z,32.10
2018-08-24T14:38:36.144Z,31.90
2018-08-24T14:41:04.572Z,31.30
2018-08-24T14:43:35.213Z,31.50
2018-08-24T14:46:03.614Z,31.60
2018-08-24T14:48:32.304Z,32.30
2018-08-24T14:51:00.645Z,32.60
2018-08-24T14:53:29.364Z,32.70
2018-08-24T14:55:57.704Z,32.80
2018-08-24T14:58:26.109Z,33.70
2018-08-24T15:00:54.525Z,33.10
2018-08-24T15:03:23.019Z,33.00
2018-08-24T15:05:51.390Z,32.90
2018-08-24T15:08:20.403Z,33.10
2018-08-24T15:10:48.808Z,32.90
2018-08-24T15:13:17.266Z,33.00
2018-08-24T15:15:45.644Z,33.00
2018-08-24T15:18:14.110Z,32.80
2018-08-24T15:20:42.477Z,33.30
2018-08-24T15:23:11.163Z,33.10
2018-08-24T15:25:39.436Z,33.00
2018-08-24T15:28:07.824Z,33.00
2018-08-24T15:30:36.216Z,32.50
2018-08-24T15:33:04.626Z,33.00
2018-08-24T15:35:33.144Z,33.50
2018-08-24T15:38:01.505Z,33.80
2018-08-24T15:40:30.112Z,34.20
2018-08-24T15:42:58.539Z,34.30
2018-08-24T15:45:27.017Z,33.20
2018-08-24T15:47:55.468Z,33.30
2018-08-24T15:50:23.908Z,33.00
2018-08-24T15:52:52.269Z,32.80
2018-08-24T15:55:20.643Z,33.10
2018-08-24T15:57:49.034Z,33.20
2018-08-24T16:00:17.435Z,33.60
2018-08-24T16:02:45.854Z,32.70
2018-08-24T16:05:14.257Z,33.00
2018-08-24T16:07:42.627Z,33.40
2018-08-24T16:10:11.069Z,30.80
2018-08-24T16:12:39.423Z,31.70
2018-08-24T16:15:08.349Z,31.10
2018-08-24T16:17:36.719Z,31.70
2018-08-24T16:20:05.549Z,30.90
2018-08-24T16:22:33.964Z,30.30
2018-08-24T16:25:02.287Z,30.10
2018-08-24T16:27:33.062Z,30.00
2018-08-24T16:30:01.609Z,29.70
2018-08-24T16:32:29.977Z,30.00
2018-08-24T16:34:58.329Z,30.40
2018-08-24T16:37:26.748Z,30.70
2018-08-24T16:39:55.143Z,30.70
2018-08-24T16:42:23.548Z,30.50
2018-08-24T16:44:51.894Z,30.70
2018-08-24T16:47:20.218Z,31.10
2018-08-24T16:49:48.550Z,31.10
2018-08-24T16:52:16.890Z,31.00
2018-08-24T16:54:45.244Z,30.10
2018-08-24T16:57:13.644Z,31.00
2018-08-24T16:59:42.040Z,30.70
2018-08-24T17:02:11.014Z,30.80
2018-08-24T17:04:39.386Z,31.20
2018-08-24T17:07:07.727Z,31.30
2018-08-24T17:09:36.137Z,31.60
2018-08-24T17:12:04.525Z,31.00
2018-08-24T17:14:32.907Z,30.90
2018-08-24T17:17:01.305Z,31.00
2018-08-24T17:19:29.628Z,31.60
2018-08-24T17:21:58.013Z,31.30
2018-08-24T17:24:26.394Z,31.80
2018-08-24T17:26:54.763Z,31.10
2018-08-24T17:29:23.122Z,32.00
2018-08-24T17:31:51.487Z,31.70
2018-08-24T17:34:19.823Z,31.50
2018-08-24T17:36:48.170Z,31.70
2018-08-24T17:39:16.545Z,31.80
2018-08-24T17:41:44.940Z,32.10
2018-08-24T17:44:13.336Z,32.70
2018-08-24T17:46:41.703Z,32.70
2018-08-24T17:49:10.104Z,32.80
2018-08-24T17:51:38.482Z,31.90
2018-08-24T17:54:06.890Z,31.50
2018-08-24T17:56:35.248Z,31.30
2018-08-24T17:59:04.109Z,30.40
2018-08-24T18:01:32.487Z,30.70
2018-08-24T18:04:01.046Z,30.50
2018-08-24T18:06:29.414Z,29.40
2018-08-24T18:08:57.773Z,30.10
2018-08-24T18:11:26.130Z,30.30
2018-08-24T18:13:54.512Z,29.20
2018-08-24T18:16:22.891Z,29.70
2018-08-24T18:18:51.834Z,30.00
2018-08-24T18:21:20.304Z,29.20
2018-08-24T18:23:48.674Z,29.10
2018-08-24T18:26:17.050Z,29.10
2018-08-24T18:28:45.388Z,29.50
2018-08-24T18:31:13.817Z,29.40
2018-08-24T18:33:42.156Z,29.60
2018-08-24T18:36:10.508Z,29.90
2018-08-24T18:38:38.964Z,29.80
2018-08-24T18:41:07.320Z,30.20
2018-08-24T18:43:35.683Z,30.70
2018-08-24T18:46:04.524Z,30.40
2018-08-24T18:48:32.934Z,31.80
2018-08-24T18:51:01.270Z,31.80
2018-08-24T18:53:29.644Z,32.80
2018-08-24T18:55:58.013Z,32.70
2018-08-24T18:58:26.398Z,32.60
2018-08-24T19:00:54.794Z,33.10
2018-08-24T19:03:23.161Z,33.00
2018-08-24T19:05:51.951Z,32.90
2018-08-24T19:08:20.302Z,33.40
2018-08-24T19:10:54.168Z,33.20
2018-08-24T19:13:22.523Z,33.60
2018-08-24T19:15:50.876Z,33.70
2018-08-24T19:25:21.876Z,34.10
2018-08-24T19:27:56.212Z,35.30
2018-08-24T19:30:29.795Z,35.10
2018-08-24T19:32:58.169Z,34.80
2018-08-24T19:35:27.106Z,35.40
2018-08-24T19:37:55.446Z,35.20
2018-08-24T19:40:29.081Z,36.20
2018-08-24T19:42:57.555Z,36.30
2018-08-24T19:45:25.911Z,36.30
2018-08-24T19:47:59.582Z,36.30
2018-08-24T19:50:27.934Z,36.20
2018-08-24T19:52:56.307Z,36.30
2018-08-24T19:55:24.636Z,36.80
2018-08-24T19:57:58.214Z,36.80
2018-08-24T20:00:26.856Z,36.80
2018-08-24T20:02:55.194Z,36.70
2018-08-24T20:05:23.537Z,36.70
2018-08-24T20:07:57.339Z,36.60
2018-08-24T20:10:26.396Z,36.60
2018-08-24T20:12:54.756Z,36.60
2018-08-24T20:15:28.367Z,36.50
2018-08-24T20:17:56.734Z,37.10
2018-08-24T20:20:31.641Z,36.80
2018-08-24T20:23:00.033Z,37.40
2018-08-24T20:25:28.400Z,38.10
2018-08-24T20:27:56.779Z,38.10
2018-08-24T20:30:25.156Z,38.00
2018-08-24T20:32:53.625Z,37.80
2018-08-24T20:35:21.966Z,37.90
2018-08-24T20:37:50.331Z,38.40
2018-08-24T20:40:18.670Z,38.60
2018-08-24T20:42:47.032Z,38.80
2018-08-24T20:45:15.820Z,39.20
2018-08-24T20:47:44.175Z,39.00
2018-08-24T20:50:12.522Z,39.20
2018-08-24T20:52:40.923Z,39.40
2018-08-24T20:55:09.313Z,39.20
2018-08-24T20:57:37.609Z,38.60
2018-08-24T21:00:06.356Z,39.20
2018-08-24T21:02:34.671Z,39.00
2018-08-24T21:05:03.096Z,38.80
2018-08-24T21:07:31.502Z,39.00
2018-08-24T21:09:59.888Z,39.40
2018-08-24T21:12:28.359Z,39.70
2018-08-24T21:14:56.751Z,39.70
2018-08-24T21:17:25.065Z,42.00
2018-08-24T21:19:53.432Z,41.60
2018-08-24T21:22:21.756Z,42.00
2018-08-24T21:24:50.170Z,41.20
2018-08-24T21:27:18.673Z,42.00
2018-08-24T21:29:47.024Z,42.20
2018-08-24T21:32:15.452Z,43.00
2018-08-24T21:34:43.842Z,43.20
2018-08-24T21:37:12.177Z,43.70
2018-08-24T21:39:40.564Z,44.40
2018-08-24T21:42:08.961Z,44.70
2018-08-24T21:44:37.268Z,45.10
2018-08-24T21:47:05.640Z,45.60
2018-08-24T21:49:34.043Z,45.70
2018-08-24T21:52:03.137Z,45.70
2018-08-24T21:54:31.580Z,46.00
2018-08-24T21:56:59.906Z,46.50
2018-08-24T21:59:28.223Z,46.30
2018-08-24T22:01:56.632Z,44.80
2018-08-24T22:04:24.986Z,45.40
2018-08-24T22:06:53.361Z,44.40
2018-08-24T22:09:21.873Z,44.30
2018-08-24T22:11:50.255Z,44.60
2018-08-24T22:14:18.605Z,44.60
2018-08-24T22:16:46.956Z,44.60
2018-08-24T22:19:15.311Z,44.40
2018-08-24T22:21:43.656Z,44.60
2018-08-24T22:24:11.974Z,45.30
2018-08-24T22:26:40.329Z,44.60
2018-08-24T22:29:08.710Z,44.90
2018-08-24T22:31:37.081Z,44.80
2018-08-24T22:34:05.478Z,45.00
2018-08-24T22:36:33.833Z,45.30
2018-08-24T22:39:02.190Z,45.30
2018-08-24T22:41:30.617Z,45.30
2018-08-24T22:43:58.946Z,45.40
2018-08-24T22:46:27.294Z,47.00
2018-08-24T22:48:55.712Z,47.20
2018-08-24T22:51:24.086Z,47.80
2018-08-24T22:53:52.468Z,46.80
2018-08-24T22:56:20.816Z,46.60
2018-08-24T22:58:49.169Z,46.80
2018-08-24T23:01:17.510Z,46.90
2018-08-24T23:03:45.862Z,48.70
2018-08-24T23:06:14.207Z,47.60
2018-08-24T23:08:42.550Z,49.00
2018-08-24T23:11:10.935Z,48.80
2018-08-24T23:13:39.394Z,49.50
2018-08-24T23:16:07.790Z,50.40
2018-08-24T23:18:36.136Z,49.40
2018-08-24T23:21:04.544Z,49.50
2018-08-24T23:23:32.905Z,48.50
2018-08-24T23:26:01.280Z,48.90
2018-08-24T23:28:29.637Z,49.80
2018-08-24T23:30:57.957Z,49.20
2018-08-24T23:33:26.343Z,48.50
2018-08-24T23:35:54.678Z,48.50
2018-08-24T23:38:23.086Z,49.50
2018-08-24T23:40:51.440Z,49.50
2018-08-24T23:43:19.804Z,49.50
2018-08-24T23:45:48.132Z,49.00
2018-08-24T23:48:16.536Z,49.20
2018-08-24T23:50:44.895Z,49.60
2018-08-24T23:53:13.369Z,49.80
2018-08-24T23:55:41.839Z,49.90
2018-08-24T23:58:10.210Z,49.30
